Terminal Aerodrome Forecast
Issued by NWS

Home | Current Version | Previous Version | Graphics & Text | Print | Product List | Glossary On
Versions: 1 2 3 4 5 6 7 8 9 10 11 12 13 14
000
FTUS43 KGRB 102300
TAFAUW
TAF
KAUW 102323Z 1100/1124 18006KT P6SM SCT050
     FM110300 15006KT P6SM FEW070 BKN250
     FM111500 18012G19KT P6SM VCSH BKN045 OVC100=

USA.gov is the U.S. government's official web portal to all federal, state and local government web resources and services.